sensor_id;sensor_type;location;lat;lon;timestamp;P1;durP1;ratioP1;P2;durP2;ratioP2
20910;SDS011;10615;42.702;23.314;2023-08-17T00:00:48;9.65;;;6.97;;
20910;SDS011;10615;42.702;23.314;2023-08-17T00:01:49;13.52;;;7.65;;
20910;SDS011;10615;42.702;23.314;2023-08-17T00:02:50;8.98;;;7.95;;
20910;SDS011;10615;42.702;23.314;2023-08-17T00:03:50;15.10;;;7.63;;
20910;SDS011;10615;42.702;23.314;2023-08-17T00:04:51;10.05;;;7.07;;
20910;SDS011;10615;42.702;23.314;2023-08-17T00:05:52;10.93;;;7.05;;
20910;SDS011;10615;42.702;23.314;2023-08-17T00:06:52;9.77;;;7.40;;
20910;SDS011;10615;42.702;23.314;2023-08-17T00:07:53;9.88;;;7.22;;
20910;SDS011;10615;42.702;23.314;2023-08-17T00:08:54;8.43;;;7.10;;
20910;SDS011;10615;42.702;23.314;2023-08-17T00:09:55;8.90;;;6.95;;
20910;SDS011;10615;42.702;23.314;2023-08-17T00:10:55;10.48;;;7.70;;
20910;SDS011;10615;42.702;23.314;2023-08-17T00:11:56;9.52;;;7.35;;
20910;SDS011;10615;42.702;23.314;2023-08-17T00:12:57;10.30;;;7.00;;
20910;SDS011;10615;42.702;23.314;2023-08-17T00:13:58;7.82;;;6.75;;
20910;SDS011;10615;42.702;23.314;2023-08-17T00:14:59;10.90;;;6.95;;
20910;SDS011;10615;42.702;23.314;2023-08-17T00:16:00;12.90;;;6.93;;
20910;SDS011;10615;42.702;23.314;2023-08-17T00:17:01;11.70;;;6.65;;
20910;SDS011;10615;42.702;23.314;2023-08-17T00:18:03;11.35;;;6.35;;
20910;SDS011;10615;42.702;23.314;2023-08-17T00:19:03;12.15;;;7.00;;
20910;SDS011;10615;42.702;23.314;2023-08-17T00:20:04;8.52;;;5.97;;
20910;SDS011;10615;42.702;23.314;2023-08-17T00:21:06;7.72;;;6.00;;
20910;SDS011;10615;42.702;23.314;2023-08-17T00:22:07;8.63;;;6.30;;
20910;SDS011;10615;42.702;23.314;2023-08-17T00:23:08;8.77;;;5.78;;
20910;SDS011;10615;42.702;23.314;2023-08-17T00:24:08;8.60;;;6.00;;
20910;SDS011;10615;42.702;23.314;2023-08-17T00:25:09;11.35;;;6.68;;
20910;SDS011;10615;42.702;23.314;2023-08-17T00:26:10;9.80;;;6.00;;
20910;SDS011;10615;42.702;23.314;2023-08-17T00:27:11;9.07;;;6.35;;
20910;SDS011;10615;42.702;23.314;2023-08-17T00:28:11;9.25;;;5.93;;
20910;SDS011;10615;42.702;23.314;2023-08-17T00:29:12;14.70;;;6.63;;
20910;SDS011;10615;42.702;23.314;2023-08-17T00:30:15;9.93;;;6.47;;
20910;SDS011;10615;42.702;23.314;2023-08-17T00:31:15;7.88;;;5.88;;
20910;SDS011;10615;42.702;23.314;2023-08-17T00:32:16;11.40;;;6.65;;
20910;SDS011;10615;42.702;23.314;2023-08-17T00:33:17;9.30;;;6.18;;
20910;SDS011;10615;42.702;23.314;2023-08-17T00:34:18;10.25;;;6.35;;
20910;SDS011;10615;42.702;23.314;2023-08-17T00:35:18;10.20;;;6.35;;
20910;SDS011;10615;42.702;23.314;2023-08-17T00:36:20;8.52;;;6.10;;
20910;SDS011;10615;42.702;23.314;2023-08-17T00:37:21;9.52;;;5.95;;
20910;SDS011;10615;42.702;23.314;2023-08-17T00:38:21;10.90;;;6.15;;
20910;SDS011;10615;42.702;23.314;2023-08-17T00:39:22;8.75;;;6.13;;
20910;SDS011;10615;42.702;23.314;2023-08-17T00:40:23;8.13;;;6.40;;
20910;SDS011;10615;42.702;23.314;2023-08-17T00:41:23;8.55;;;6.07;;
20910;SDS011;10615;42.702;23.314;2023-08-17T00:42:24;11.18;;;5.90;;
20910;SDS011;10615;42.702;23.314;2023-08-17T00:43:25;7.18;;;5.53;;
20910;SDS011;10615;42.702;23.314;2023-08-17T00:44:25;9.95;;;6.60;;
20910;SDS011;10615;42.702;23.314;2023-08-17T00:45:26;8.32;;;6.07;;
20910;SDS011;10615;42.702;23.314;2023-08-17T00:46:27;10.25;;;5.90;;
20910;SDS011;10615;42.702;23.314;2023-08-17T00:47:29;9.88;;;6.05;;
20910;SDS011;10615;42.702;23.314;2023-08-17T00:48:30;7.72;;;5.68;;
20910;SDS011;10615;42.702;23.314;2023-08-17T00:49:32;12.18;;;6.00;;
20910;SDS011;10615;42.702;23.314;2023-08-17T00:50:35;9.82;;;5.78;;
20910;SDS011;10615;42.702;23.314;2023-08-17T00:51:37;12.95;;;6.13;;
20910;SDS011;10615;42.702;23.314;2023-08-17T00:52:39;10.07;;;6.03;;
20910;SDS011;10615;42.702;23.314;2023-08-17T00:53:41;11.68;;;5.60;;
20910;SDS011;10615;42.702;23.314;2023-08-17T00:54:42;7.72;;;5.93;;
20910;SDS011;10615;42.702;23.314;2023-08-17T00:55:43;8.60;;;6.10;;
20910;SDS011;10615;42.702;23.314;2023-08-17T00:56:44;7.25;;;6.05;;
20910;SDS011;10615;42.702;23.314;2023-08-17T00:57:45;9.80;;;6.13;;
20910;SDS011;10615;42.702;23.314;2023-08-17T00:58:45;7.88;;;5.70;;
20910;SDS011;10615;42.702;23.314;2023-08-17T00:59:46;13.27;;;5.50;;
20910;SDS011;10615;42.702;23.314;2023-08-17T01:00:47;8.63;;;5.50;;
20910;SDS011;10615;42.702;23.314;2023-08-17T01:01:48;8.70;;;5.25;;
20910;SDS011;10615;42.702;23.314;2023-08-17T01:02:49;9.70;;;5.43;;
20910;SDS011;10615;42.702;23.314;2023-08-17T01:03:51;9.70;;;5.18;;
20910;SDS011;10615;42.702;23.314;2023-08-17T01:04:52;10.45;;;5.32;;
20910;SDS011;10615;42.702;23.314;2023-08-17T01:05:53;8.43;;;5.45;;
20910;SDS011;10615;42.702;23.314;2023-08-17T01:06:54;7.50;;;5.70;;
20910;SDS011;10615;42.702;23.314;2023-08-17T01:07:54;8.82;;;5.88;;
20910;SDS011;10615;42.702;23.314;2023-08-17T01:08:55;7.70;;;5.38;;
20910;SDS011;10615;42.702;23.314;2023-08-17T01:09:56;8.50;;;5.55;;
20910;SDS011;10615;42.702;23.314;2023-08-17T01:11:00;8.35;;;5.00;;
20910;SDS011;10615;42.702;23.314;2023-08-17T01:12:19;10.30;;;5.78;;
20910;SDS011;10615;42.702;23.314;2023-08-17T01:13:50;11.25;;;5.60;;
20910;SDS011;10615;42.702;23.314;2023-08-17T01:14:57;8.00;;;5.45;;
20910;SDS011;10615;42.702;23.314;2023-08-17T01:16:09;10.40;;;5.75;;
20910;SDS011;10615;42.702;23.314;2023-08-17T01:17:25;8.23;;;5.32;;
20910;SDS011;10615;42.702;23.314;2023-08-17T01:18:34;8.45;;;5.43;;
20910;SDS011;10615;42.702;23.314;2023-08-17T01:19:37;10.43;;;5.57;;
20910;SDS011;10615;42.702;23.314;2023-08-17T01:20:39;8.32;;;5.68;;
20910;SDS011;10615;42.702;23.314;2023-08-17T01:21:41;10.38;;;5.72;;
20910;SDS011;10615;42.702;23.314;2023-08-17T01:22:45;6.25;;;5.30;;
20910;SDS011;10615;42.702;23.314;2023-08-17T01:23:48;8.63;;;5.15;;
20910;SDS011;10615;42.702;23.314;2023-08-17T01:24:50;11.68;;;5.60;;
20910;SDS011;10615;42.702;23.314;2023-08-17T01:25:57;8.32;;;5.38;;
20910;SDS011;10615;42.702;23.314;2023-08-17T01:26:57;8.55;;;5.35;;
20910;SDS011;10615;42.702;23.314;2023-08-17T01:27:58;11.35;;;4.75;;
20910;SDS011;10615;42.702;23.314;2023-08-17T01:28:59;8.93;;;5.32;;
20910;SDS011;10615;42.702;23.314;2023-08-17T01:30:00;8.25;;;4.93;;
20910;SDS011;10615;42.702;23.314;2023-08-17T01:31:05;8.73;;;4.97;;
20910;SDS011;10615;42.702;23.314;2023-08-17T01:32:21;10.13;;;5.30;;
20910;SDS011;10615;42.702;23.314;2023-08-17T01:33:45;6.28;;;5.10;;
20910;SDS011;10615;42.702;23.314;2023-08-17T01:34:50;9.88;;;5.13;;
20910;SDS011;10615;42.702;23.314;2023-08-17T01:37:11;8.52;;;4.90;;
20910;SDS011;10615;42.702;23.314;2023-08-17T01:38:16;6.90;;;4.55;;
20910;SDS011;10615;42.702;23.314;2023-08-17T01:39:18;6.88;;;4.97;;
20910;SDS011;10615;42.702;23.314;2023-08-17T01:40:23;6.60;;;5.35;;
20910;SDS011;10615;42.702;23.314;2023-08-17T01:41:28;8.50;;;4.90;;
20910;SDS011;10615;42.702;23.314;2023-08-17T01:42:30;9.07;;;5.35;;
20910;SDS011;10615;42.702;23.314;2023-08-17T01:43:31;8.50;;;5.45;;
20910;SDS011;10615;42.702;23.314;2023-08-17T01:44:33;9.50;;;5.55;;
20910;SDS011;10615;42.702;23.314;2023-08-17T01:45:34;9.25;;;5.47;;
20910;SDS011;10615;42.702;23.314;2023-08-17T01:46:35;12.32;;;5.50;;
20910;SDS011;10615;42.702;23.314;2023-08-17T01:47:36;10.25;;;5.15;;
20910;SDS011;10615;42.702;23.314;2023-08-17T01:48:37;8.38;;;5.03;;
20910;SDS011;10615;42.702;23.314;2023-08-17T01:49:37;9.07;;;5.22;;
20910;SDS011;10615;42.702;23.314;2023-08-17T01:50:38;11.30;;;5.38;;
20910;SDS011;10615;42.702;23.314;2023-08-17T01:51:39;8.73;;;5.13;;
20910;SDS011;10615;42.702;23.314;2023-08-17T01:52:39;9.40;;;5.47;;
20910;SDS011;10615;42.702;23.314;2023-08-17T01:53:40;9.23;;;5.18;;
20910;SDS011;10615;42.702;23.314;2023-08-17T01:54:41;9.57;;;5.40;;
20910;SDS011;10615;42.702;23.314;2023-08-17T01:55:41;8.43;;;4.93;;
20910;SDS011;10615;42.702;23.314;2023-08-17T01:56:42;8.35;;;5.40;;
20910;SDS011;10615;42.702;23.314;2023-08-17T01:57:42;8.82;;;5.25;;
20910;SDS011;10615;42.702;23.314;2023-08-17T01:58:43;7.78;;;5.25;;
20910;SDS011;10615;42.702;23.314;2023-08-17T01:59:44;6.63;;;4.90;;
20910;SDS011;10615;42.702;23.314;2023-08-17T02:00:44;8.52;;;5.47;;
20910;SDS011;10615;42.702;23.314;2023-08-17T02:01:45;7.40;;;5.15;;
20910;SDS011;10615;42.702;23.314;2023-08-17T02:02:46;10.05;;;5.22;;
20910;SDS011;10615;42.702;23.314;2023-08-17T02:03:47;9.48;;;5.25;;
20910;SDS011;10615;42.702;23.314;2023-08-17T02:04:47;8.85;;;5.10;;
20910;SDS011;10615;42.702;23.314;2023-08-17T02:05:48;9.75;;;4.75;;
20910;SDS011;10615;42.702;23.314;2023-08-17T02:06:49;9.13;;;5.05;;
20910;SDS011;10615;42.702;23.314;2023-08-17T02:07:50;9.60;;;5.75;;
20910;SDS011;10615;42.702;23.314;2023-08-17T02:08:50;9.10;;;5.32;;
20910;SDS011;10615;42.702;23.314;2023-08-17T02:09:51;7.18;;;4.93;;
20910;SDS011;10615;42.702;23.314;2023-08-17T02:10:52;7.80;;;4.68;;
20910;SDS011;10615;42.702;23.314;2023-08-17T02:11:53;9.68;;;5.53;;
20910;SDS011;10615;42.702;23.314;2023-08-17T02:12:54;7.93;;;4.95;;
20910;SDS011;10615;42.702;23.314;2023-08-17T02:13:54;10.45;;;5.38;;
20910;SDS011;10615;42.702;23.314;2023-08-17T02:14:55;7.75;;;5.00;;
20910;SDS011;10615;42.702;23.314;2023-08-17T02:15:56;11.23;;;5.25;;
20910;SDS011;10615;42.702;23.314;2023-08-17T02:16:56;7.10;;;5.20;;
20910;SDS011;10615;42.702;23.314;2023-08-17T02:18:00;6.95;;;4.97;;
20910;SDS011;10615;42.702;23.314;2023-08-17T02:19:01;9.82;;;5.18;;
20910;SDS011;10615;42.702;23.314;2023-08-17T02:20:02;8.90;;;5.15;;
20910;SDS011;10615;42.702;23.314;2023-08-17T02:21:04;9.32;;;5.25;;
20910;SDS011;10615;42.702;23.314;2023-08-17T02:22:04;10.93;;;5.22;;
20910;SDS011;10615;42.702;23.314;2023-08-17T02:23:05;7.63;;;5.25;;
20910;SDS011;10615;42.702;23.314;2023-08-17T02:24:06;11.02;;;5.65;;
20910;SDS011;10615;42.702;23.314;2023-08-17T02:25:07;9.85;;;5.22;;
20910;SDS011;10615;42.702;23.314;2023-08-17T02:26:08;6.00;;;5.03;;
20910;SDS011;10615;42.702;23.314;2023-08-17T02:27:09;8.57;;;5.38;;
20910;SDS011;10615;42.702;23.314;2023-08-17T02:28:10;6.78;;;5.35;;
20910;SDS011;10615;42.702;23.314;2023-08-17T02:29:11;7.55;;;5.40;;
20910;SDS011;10615;42.702;23.314;2023-08-17T02:30:11;6.68;;;4.88;;
20910;SDS011;10615;42.702;23.314;2023-08-17T02:31:13;10.20;;;5.25;;
20910;SDS011;10615;42.702;23.314;2023-08-17T02:32:13;8.18;;;5.40;;
20910;SDS011;10615;42.702;23.314;2023-08-17T02:33:14;10.32;;;5.78;;
20910;SDS011;10615;42.702;23.314;2023-08-17T02:34:15;11.90;;;5.68;;
20910;SDS011;10615;42.702;23.314;2023-08-17T02:35:16;8.48;;;5.25;;
20910;SDS011;10615;42.702;23.314;2023-08-17T02:36:16;10.07;;;4.93;;
20910;SDS011;10615;42.702;23.314;2023-08-17T02:37:17;9.55;;;5.43;;
20910;SDS011;10615;42.702;23.314;2023-08-17T02:38:18;11.13;;;5.53;;
20910;SDS011;10615;42.702;23.314;2023-08-17T02:39:18;9.30;;;5.22;;
20910;SDS011;10615;42.702;23.314;2023-08-17T02:40:19;11.23;;;5.35;;
20910;SDS011;10615;42.702;23.314;2023-08-17T02:41:20;10.38;;;5.13;;
20910;SDS011;10615;42.702;23.314;2023-08-17T02:42:21;8.55;;;5.25;;
20910;SDS011;10615;42.702;23.314;2023-08-17T02:43:21;7.88;;;4.85;;
20910;SDS011;10615;42.702;23.314;2023-08-17T02:44:22;9.43;;;5.30;;
20910;SDS011;10615;42.702;23.314;2023-08-17T02:45:23;8.60;;;5.50;;
20910;SDS011;10615;42.702;23.314;2023-08-17T02:46:23;7.72;;;4.82;;
20910;SDS011;10615;42.702;23.314;2023-08-17T02:47:24;7.88;;;5.55;;
20910;SDS011;10615;42.702;23.314;2023-08-17T02:48:25;11.68;;;5.70;;
20910;SDS011;10615;42.702;23.314;2023-08-17T02:49:25;8.40;;;4.80;;
20910;SDS011;10615;42.702;23.314;2023-08-17T02:50:26;9.95;;;5.22;;
20910;SDS011;10615;42.702;23.314;2023-08-17T02:51:27;9.15;;;5.40;;
20910;SDS011;10615;42.702;23.314;2023-08-17T02:52:28;12.98;;;5.35;;
20910;SDS011;10615;42.702;23.314;2023-08-17T02:53:28;7.32;;;4.82;;
20910;SDS011;10615;42.702;23.314;2023-08-17T02:54:29;6.18;;;4.75;;
20910;SDS011;10615;42.702;23.314;2023-08-17T02:55:31;7.13;;;4.80;;
20910;SDS011;10615;42.702;23.314;2023-08-17T02:56:32;6.80;;;5.10;;
20910;SDS011;10615;42.702;23.314;2023-08-17T02:57:32;8.15;;;5.10;;
20910;SDS011;10615;42.702;23.314;2023-08-17T02:58:33;8.90;;;5.07;;
20910;SDS011;10615;42.702;23.314;2023-08-17T02:59:34;11.13;;;5.10;;
20910;SDS011;10615;42.702;23.314;2023-08-17T03:00:34;7.78;;;5.22;;
20910;SDS011;10615;42.702;23.314;2023-08-17T03:01:35;10.02;;;5.30;;
20910;SDS011;10615;42.702;23.314;2023-08-17T03:02:36;7.15;;;4.95;;
20910;SDS011;10615;42.702;23.314;2023-08-17T03:03:37;10.15;;;5.15;;
20910;SDS011;10615;42.702;23.314;2023-08-17T03:04:37;9.35;;;5.28;;
20910;SDS011;10615;42.702;23.314;2023-08-17T03:05:38;8.05;;;5.38;;
20910;SDS011;10615;42.702;23.314;2023-08-17T03:06:39;9.48;;;5.15;;
20910;SDS011;10615;42.702;23.314;2023-08-17T03:07:39;9.60;;;5.30;;
20910;SDS011;10615;42.702;23.314;2023-08-17T03:08:40;8.98;;;5.35;;
20910;SDS011;10615;42.702;23.314;2023-08-17T03:09:41;8.20;;;5.00;;
20910;SDS011;10615;42.702;23.314;2023-08-17T03:10:41;8.07;;;5.13;;
20910;SDS011;10615;42.702;23.314;2023-08-17T03:11:42;8.48;;;4.97;;
20910;SDS011;10615;42.702;23.314;2023-08-17T03:12:42;9.52;;;5.15;;
20910;SDS011;10615;42.702;23.314;2023-08-17T03:13:43;7.85;;;5.32;;
20910;SDS011;10615;42.702;23.314;2023-08-17T03:14:45;9.93;;;5.18;;
20910;SDS011;10615;42.702;23.314;2023-08-17T03:15:46;7.00;;;4.90;;
20910;SDS011;10615;42.702;23.314;2023-08-17T03:16:47;9.15;;;4.75;;
20910;SDS011;10615;42.702;23.314;2023-08-17T03:17:47;6.55;;;4.90;;
20910;SDS011;10615;42.702;23.314;2023-08-17T03:18:48;7.00;;;5.15;;
20910;SDS011;10615;42.702;23.314;2023-08-17T03:19:49;13.90;;;5.60;;
20910;SDS011;10615;42.702;23.314;2023-08-17T03:20:49;11.20;;;4.97;;
20910;SDS011;10615;42.702;23.314;2023-08-17T03:21:50;8.27;;;4.95;;
20910;SDS011;10615;42.702;23.314;2023-08-17T03:22:51;9.63;;;4.82;;
20910;SDS011;10615;42.702;23.314;2023-08-17T03:23:51;8.68;;;5.88;;
20910;SDS011;10615;42.702;23.314;2023-08-17T03:24:54;7.15;;;5.05;;
20910;SDS011;10615;42.702;23.314;2023-08-17T03:25:55;6.75;;;5.00;;
20910;SDS011;10615;42.702;23.314;2023-08-17T03:26:56;7.07;;;5.18;;
20910;SDS011;10615;42.702;23.314;2023-08-17T03:27:56;9.07;;;5.20;;
20910;SDS011;10615;42.702;23.314;2023-08-17T03:28:57;8.40;;;5.03;;
20910;SDS011;10615;42.702;23.314;2023-08-17T03:29:58;8.48;;;5.32;;
20910;SDS011;10615;42.702;23.314;2023-08-17T03:30:58;9.80;;;5.00;;
20910;SDS011;10615;42.702;23.314;2023-08-17T03:31:59;7.10;;;4.90;;
20910;SDS011;10615;42.702;23.314;2023-08-17T03:33:00;7.18;;;5.15;;
20910;SDS011;10615;42.702;23.314;2023-08-17T03:34:00;7.68;;;4.90;;
20910;SDS011;10615;42.702;23.314;2023-08-17T03:35:01;6.45;;;4.38;;
20910;SDS011;10615;42.702;23.314;2023-08-17T03:36:02;5.53;;;4.97;;
20910;SDS011;10615;42.702;23.314;2023-08-17T03:37:04;8.88;;;4.93;;
20910;SDS011;10615;42.702;23.314;2023-08-17T03:38:05;9.27;;;5.03;;
20910;SDS011;10615;42.702;23.314;2023-08-17T03:39:06;7.07;;;5.35;;
20910;SDS011;10615;42.702;23.314;2023-08-17T03:40:07;5.50;;;4.50;;
20910;SDS011;10615;42.702;23.314;2023-08-17T03:41:08;10.43;;;5.00;;
20910;SDS011;10615;42.702;23.314;2023-08-17T03:42:09;8.68;;;5.38;;
20910;SDS011;10615;42.702;23.314;2023-08-17T03:43:10;7.05;;;5.03;;
20910;SDS011;10615;42.702;23.314;2023-08-17T03:44:10;7.60;;;5.20;;
20910;SDS011;10615;42.702;23.314;2023-08-17T03:45:13;9.48;;;4.90;;
20910;SDS011;10615;42.702;23.314;2023-08-17T03:46:14;8.50;;;5.07;;
20910;SDS011;10615;42.702;23.314;2023-08-17T03:47:15;7.47;;;5.05;;
20910;SDS011;10615;42.702;23.314;2023-08-17T03:48:15;7.15;;;5.53;;
20910;SDS011;10615;42.702;23.314;2023-08-17T03:49:16;11.98;;;5.45;;
20910;SDS011;10615;42.702;23.314;2023-08-17T03:50:17;8.40;;;5.43;;
20910;SDS011;10615;42.702;23.314;2023-08-17T03:51:17;9.55;;;5.53;;
20910;SDS011;10615;42.702;23.314;2023-08-17T03:52:19;8.50;;;5.03;;
20910;SDS011;10615;42.702;23.314;2023-08-17T03:53:19;7.15;;;5.32;;
20910;SDS011;10615;42.702;23.314;2023-08-17T03:54:20;8.85;;;5.80;;
20910;SDS011;10615;42.702;23.314;2023-08-17T03:55:21;11.65;;;5.40;;
20910;SDS011;10615;42.702;23.314;2023-08-17T03:56:22;8.30;;;5.45;;
20910;SDS011;10615;42.702;23.314;2023-08-17T03:57:22;9.57;;;5.55;;
20910;SDS011;10615;42.702;23.314;2023-08-17T03:58:23;10.43;;;5.68;;
20910;SDS011;10615;42.702;23.314;2023-08-17T03:59:26;9.90;;;5.40;;
20910;SDS011;10615;42.702;23.314;2023-08-17T04:00:27;10.68;;;5.18;;
20910;SDS011;10615;42.702;23.314;2023-08-17T04:01:28;10.35;;;5.28;;
20910;SDS011;10615;42.702;23.314;2023-08-17T04:02:28;11.70;;;5.10;;
20910;SDS011;10615;42.702;23.314;2023-08-17T04:03:29;9.00;;;5.57;;
20910;SDS011;10615;42.702;23.314;2023-08-17T04:04:30;8.77;;;5.38;;
20910;SDS011;10615;42.702;23.314;2023-08-17T04:05:31;9.20;;;5.95;;
20910;SDS011;10615;42.702;23.314;2023-08-17T04:06:31;9.82;;;5.55;;
20910;SDS011;10615;42.702;23.314;2023-08-17T04:07:32;9.07;;;5.05;;
20910;SDS011;10615;42.702;23.314;2023-08-17T04:08:33;8.68;;;5.32;;
20910;SDS011;10615;42.702;23.314;2023-08-17T04:09:33;10.95;;;5.82;;
20910;SDS011;10615;42.702;23.314;2023-08-17T04:10:34;8.00;;;5.20;;
20910;SDS011;10615;42.702;23.314;2023-08-17T04:11:35;8.32;;;4.95;;
20910;SDS011;10615;42.702;23.314;2023-08-17T04:12:39;8.48;;;5.60;;
20910;SDS011;10615;42.702;23.314;2023-08-17T04:13:39;11.02;;;5.63;;
20910;SDS011;10615;42.702;23.314;2023-08-17T04:14:40;11.52;;;5.80;;
20910;SDS011;10615;42.702;23.314;2023-08-17T04:15:40;12.15;;;5.60;;
20910;SDS011;10615;42.702;23.314;2023-08-17T04:16:41;9.27;;;5.18;;
20910;SDS011;10615;42.702;23.314;2023-08-17T04:17:42;13.02;;;5.78;;
20910;SDS011;10615;42.702;23.314;2023-08-17T04:18:42;8.93;;;5.53;;
20910;SDS011;10615;42.702;23.314;2023-08-17T04:19:43;8.82;;;5.30;;
20910;SDS011;10615;42.702;23.314;2023-08-17T04:20:44;8.40;;;5.07;;
20910;SDS011;10615;42.702;23.314;2023-08-17T04:21:44;11.25;;;5.28;;
20910;SDS011;10615;42.702;23.314;2023-08-17T04:22:45;12.15;;;5.80;;
20910;SDS011;10615;42.702;23.314;2023-08-17T04:23:46;8.48;;;5.30;;
20910;SDS011;10615;42.702;23.314;2023-08-17T04:24:46;9.80;;;5.63;;
20910;SDS011;10615;42.702;23.314;2023-08-17T04:25:47;12.27;;;5.25;;
20910;SDS011;10615;42.702;23.314;2023-08-17T04:26:48;11.73;;;5.60;;
20910;SDS011;10615;42.702;23.314;2023-08-17T04:27:49;7.75;;;5.10;;
20910;SDS011;10615;42.702;23.314;2023-08-17T04:28:49;11.80;;;5.30;;
20910;SDS011;10615;42.702;23.314;2023-08-17T04:29:50;7.47;;;5.10;;
20910;SDS011;10615;42.702;23.314;2023-08-17T04:30:51;7.22;;;4.72;;
20910;SDS011;10615;42.702;23.314;2023-08-17T04:31:51;8.23;;;5.00;;
20910;SDS011;10615;42.702;23.314;2023-08-17T04:32:53;11.02;;;4.90;;
20910;SDS011;10615;42.702;23.314;2023-08-17T04:33:53;10.02;;;5.05;;
20910;SDS011;10615;42.702;23.314;2023-08-17T04:34:54;6.63;;;4.70;;
20910;SDS011;10615;42.702;23.314;2023-08-17T04:35:55;11.23;;;5.07;;
20910;SDS011;10615;42.702;23.314;2023-08-17T04:36:55;9.98;;;5.00;;
20910;SDS011;10615;42.702;23.314;2023-08-17T04:37:56;6.70;;;5.13;;
20910;SDS011;10615;42.702;23.314;2023-08-17T04:38:57;10.77;;;5.28;;
20910;SDS011;10615;42.702;23.314;2023-08-17T04:39:57;7.40;;;5.15;;
20910;SDS011;10615;42.702;23.314;2023-08-17T04:40:58;10.70;;;6.07;;
20910;SDS011;10615;42.702;23.314;2023-08-17T04:41:59;7.05;;;4.80;;
20910;SDS011;10615;42.702;23.314;2023-08-17T04:42:59;9.52;;;4.68;;
20910;SDS011;10615;42.702;23.314;2023-08-17T04:44:00;8.43;;;4.28;;
20910;SDS011;10615;42.702;23.314;2023-08-17T04:45:01;5.70;;;4.40;;
20910;SDS011;10615;42.702;23.314;2023-08-17T04:46:02;8.88;;;4.47;;
20910;SDS011;10615;42.702;23.314;2023-08-17T04:47:02;11.77;;;4.40;;
20910;SDS011;10615;42.702;23.314;2023-08-17T04:48:03;7.40;;;4.18;;
20910;SDS011;10615;42.702;23.314;2023-08-17T04:49:05;11.40;;;4.20;;
20910;SDS011;10615;42.702;23.314;2023-08-17T04:50:06;9.13;;;4.00;;
20910;SDS011;10615;42.702;23.314;2023-08-17T04:51:07;12.15;;;4.80;;
20910;SDS011;10615;42.702;23.314;2023-08-17T04:52:08;10.95;;;4.10;;
20910;SDS011;10615;42.702;23.314;2023-08-17T04:53:09;5.97;;;4.45;;
20910;SDS011;10615;42.702;23.314;2023-08-17T04:54:09;7.90;;;4.07;;
20910;SDS011;10615;42.702;23.314;2023-08-17T04:55:10;5.45;;;4.20;;
20910;SDS011;10615;42.702;23.314;2023-08-17T04:56:11;5.95;;;3.83;;
20910;SDS011;10615;42.702;23.314;2023-08-17T04:57:12;9.90;;;4.45;;
20910;SDS011;10615;42.702;23.314;2023-08-17T04:58:13;6.18;;;3.95;;
20910;SDS011;10615;42.702;23.314;2023-08-17T04:59:13;5.45;;;3.90;;
20910;SDS011;10615;42.702;23.314;2023-08-17T05:00:14;10.60;;;4.00;;
20910;SDS011;10615;42.702;23.314;2023-08-17T05:01:16;5.68;;;3.80;;
20910;SDS011;10615;42.702;23.314;2023-08-17T05:02:18;5.72;;;3.50;;
20910;SDS011;10615;42.702;23.314;2023-08-17T05:03:18;8.80;;;4.03;;
20910;SDS011;10615;42.702;23.314;2023-08-17T05:04:19;7.40;;;3.83;;
20910;SDS011;10615;42.702;23.314;2023-08-17T05:05:20;9.68;;;3.90;;
20910;SDS011;10615;42.702;23.314;2023-08-17T05:06:21;5.38;;;3.67;;
20910;SDS011;10615;42.702;23.314;2023-08-17T05:07:21;5.47;;;3.30;;
20910;SDS011;10615;42.702;23.314;2023-08-17T05:08:22;4.63;;;3.33;;
20910;SDS011;10615;42.702;23.314;2023-08-17T05:09:23;12.65;;;3.75;;
20910;SDS011;10615;42.702;23.314;2023-08-17T05:10:23;7.45;;;3.95;;
20910;SDS011;10615;42.702;23.314;2023-08-17T05:11:24;5.85;;;3.20;;
20910;SDS011;10615;42.702;23.314;2023-08-17T05:12:25;4.60;;;3.47;;
20910;SDS011;10615;42.702;23.314;2023-08-17T05:13:25;7.05;;;3.60;;
20910;SDS011;10615;42.702;23.314;2023-08-17T05:14:26;5.47;;;3.72;;
20910;SDS011;10615;42.702;23.314;2023-08-17T05:15:27;7.30;;;3.95;;
20910;SDS011;10615;42.702;23.314;2023-08-17T05:16:27;6.93;;;3.53;;
20910;SDS011;10615;42.702;23.314;2023-08-17T05:17:28;7.05;;;3.45;;
20910;SDS011;10615;42.702;23.314;2023-08-17T05:18:29;4.78;;;3.58;;
20910;SDS011;10615;42.702;23.314;2023-08-17T05:19:29;8.05;;;3.83;;
20910;SDS011;10615;42.702;23.314;2023-08-17T05:20:30;6.75;;;3.97;;
20910;SDS011;10615;42.702;23.314;2023-08-17T05:21:31;8.07;;;3.80;;
20910;SDS011;10615;42.702;23.314;2023-08-17T05:22:31;7.55;;;3.80;;
20910;SDS011;10615;42.702;23.314;2023-08-17T05:23:32;7.07;;;3.67;;
20910;SDS011;10615;42.702;23.314;2023-08-17T05:24:33;5.78;;;3.33;;
20910;SDS011;10615;42.702;23.314;2023-08-17T05:25:33;5.78;;;3.63;;
20910;SDS011;10615;42.702;23.314;2023-08-17T05:26:34;7.68;;;4.35;;
20910;SDS011;10615;42.702;23.314;2023-08-17T05:27:35;5.80;;;3.67;;
20910;SDS011;10615;42.702;23.314;2023-08-17T05:28:35;7.97;;;3.70;;
20910;SDS011;10615;42.702;23.314;2023-08-17T05:29:36;6.38;;;3.60;;
20910;SDS011;10615;42.702;23.314;2023-08-17T05:30:37;7.25;;;4.00;;
20910;SDS011;10615;42.702;23.314;2023-08-17T05:31:37;6.65;;;3.97;;
20910;SDS011;10615;42.702;23.314;2023-08-17T05:32:39;9.35;;;3.85;;
20910;SDS011;10615;42.702;23.314;2023-08-17T05:33:40;6.65;;;3.58;;
20910;SDS011;10615;42.702;23.314;2023-08-17T05:34:41;7.82;;;3.90;;
20910;SDS011;10615;42.702;23.314;2023-08-17T05:35:42;7.90;;;4.28;;
20910;SDS011;10615;42.702;23.314;2023-08-17T05:36:42;8.20;;;3.83;;
20910;SDS011;10615;42.702;23.314;2023-08-17T05:37:43;7.80;;;3.50;;
20910;SDS011;10615;42.702;23.314;2023-08-17T05:38:44;9.48;;;3.72;;
20910;SDS011;10615;42.702;23.314;2023-08-17T05:39:44;6.60;;;3.20;;
20910;SDS011;10615;42.702;23.314;2023-08-17T05:40:45;7.25;;;3.42;;
20910;SDS011;10615;42.702;23.314;2023-08-17T05:41:46;7.13;;;3.45;;
20910;SDS011;10615;42.702;23.314;2023-08-17T05:42:47;7.93;;;3.85;;
20910;SDS011;10615;42.702;23.314;2023-08-17T05:43:48;7.43;;;4.13;;
20910;SDS011;10615;42.702;23.314;2023-08-17T05:44:48;5.55;;;3.55;;
20910;SDS011;10615;42.702;23.314;2023-08-17T05:45:49;8.07;;;4.00;;
20910;SDS011;10615;42.702;23.314;2023-08-17T05:46:50;7.78;;;4.10;;
20910;SDS011;10615;42.702;23.314;2023-08-17T05:47:51;7.57;;;4.40;;
20910;SDS011;10615;42.702;23.314;2023-08-17T05:48:52;10.75;;;4.97;;
20910;SDS011;10615;42.702;23.314;2023-08-17T05:49:53;7.82;;;4.38;;
20910;SDS011;10615;42.702;23.314;2023-08-17T05:50:55;8.15;;;4.70;;
20910;SDS011;10615;42.702;23.314;2023-08-17T05:51:56;10.50;;;4.05;;
20910;SDS011;10615;42.702;23.314;2023-08-17T05:52:57;7.63;;;3.67;;
20910;SDS011;10615;42.702;23.314;2023-08-17T05:53:57;7.07;;;3.92;;
20910;SDS011;10615;42.702;23.314;2023-08-17T05:54:58;9.60;;;3.78;;
20910;SDS011;10615;42.702;23.314;2023-08-17T05:55:58;7.60;;;4.05;;
20910;SDS011;10615;42.702;23.314;2023-08-17T05:56:59;8.30;;;3.63;;
20910;SDS011;10615;42.702;23.314;2023-08-17T05:58:00;3.92;;;3.22;;
20910;SDS011;10615;42.702;23.314;2023-08-17T05:59:02;8.48;;;3.58;;
20910;SDS011;10615;42.702;23.314;2023-08-17T06:00:03;5.75;;;3.03;;
20910;SDS011;10615;42.702;23.314;2023-08-17T06:01:07;6.65;;;3.80;;
20910;SDS011;10615;42.702;23.314;2023-08-17T06:02:09;7.97;;;3.20;;
20910;SDS011;10615;42.702;23.314;2023-08-17T06:03:10;11.55;;;10.25;;
20910;SDS011;10615;42.702;23.314;2023-08-17T06:04:11;5.53;;;3.60;;